sensor_id;sensor_type;location;lat;lon;timestamp;P1;durP1;ratioP1;P2;durP2;ratioP2
76228;SDS011;65021;53.174;18.160;2023-07-24T00:00:36;7.60;;;3.00;;
76228;SDS011;65021;53.174;18.160;2023-07-24T00:03:24;7.20;;;3.60;;
76228;SDS011;65021;53.174;18.160;2023-07-24T00:05:50;5.90;;;3.00;;
76228;SDS011;65021;53.174;18.160;2023-07-24T00:08:17;7.20;;;3.00;;
76228;SDS011;65021;53.174;18.160;2023-07-24T00:10:44;6.50;;;3.40;;
76228;SDS011;65021;53.174;18.160;2023-07-24T00:13:11;6.40;;;3.00;;
76228;SDS011;65021;53.174;18.160;2023-07-24T00:15:38;6.80;;;3.20;;
76228;SDS011;65021;53.174;18.160;2023-07-24T00:18:05;7.00;;;2.80;;
76228;SDS011;65021;53.174;18.160;2023-07-24T00:20:31;5.90;;;2.90;;
76228;SDS011;65021;53.174;18.160;2023-07-24T00:22:58;5.80;;;2.80;;
76228;SDS011;65021;53.174;18.160;2023-07-24T00:25:24;5.70;;;3.10;;
76228;SDS011;65021;53.174;18.160;2023-07-24T00:27:51;6.30;;;3.10;;
76228;SDS011;65021;53.174;18.160;2023-07-24T00:30:17;6.10;;;2.90;;
76228;SDS011;65021;53.174;18.160;2023-07-24T00:32:44;5.80;;;2.60;;
76228;SDS011;65021;53.174;18.160;2023-07-24T00:35:11;8.60;;;3.90;;
76228;SDS011;65021;53.174;18.160;2023-07-24T00:37:37;5.50;;;2.70;;
76228;SDS011;65021;53.174;18.160;2023-07-24T00:40:04;5.70;;;2.70;;
76228;SDS011;65021;53.174;18.160;2023-07-24T00:42:31;5.50;;;2.60;;
76228;SDS011;65021;53.174;18.160;2023-07-24T00:44:58;6.20;;;2.70;;
76228;SDS011;65021;53.174;18.160;2023-07-24T00:47:25;7.50;;;3.10;;
76228;SDS011;65021;53.174;18.160;2023-07-24T00:49:53;6.30;;;2.80;;
76228;SDS011;65021;53.174;18.160;2023-07-24T00:52:21;7.10;;;2.50;;
76228;SDS011;65021;53.174;18.160;2023-07-24T00:54:47;7.30;;;2.80;;
76228;SDS011;65021;53.174;18.160;2023-07-24T00:57:15;6.50;;;2.90;;
76228;SDS011;65021;53.174;18.160;2023-07-24T00:59:42;6.00;;;2.70;;
76228;SDS011;65021;53.174;18.160;2023-07-24T01:02:11;5.20;;;2.40;;
76228;SDS011;65021;53.174;18.160;2023-07-24T01:04:38;5.60;;;2.60;;
76228;SDS011;65021;53.174;18.160;2023-07-24T01:07:04;6.10;;;2.90;;
76228;SDS011;65021;53.174;18.160;2023-07-24T01:09:31;5.20;;;2.40;;
76228;SDS011;65021;53.174;18.160;2023-07-24T01:12:02;5.10;;;2.40;;
76228;SDS011;65021;53.174;18.160;2023-07-24T01:17:07;6.90;;;2.50;;
76228;SDS011;65021;53.174;18.160;2023-07-24T01:19:48;5.30;;;2.20;;
76228;SDS011;65021;53.174;18.160;2023-07-24T01:25:00;6.40;;;2.40;;
76228;SDS011;65021;53.174;18.160;2023-07-24T01:27:45;4.70;;;2.10;;
76228;SDS011;65021;53.174;18.160;2023-07-24T01:30:17;4.90;;;2.50;;
76228;SDS011;65021;53.174;18.160;2023-07-24T01:32:45;5.10;;;2.30;;
76228;SDS011;65021;53.174;18.160;2023-07-24T01:35:12;4.00;;;2.00;;
76228;SDS011;65021;53.174;18.160;2023-07-24T01:37:38;6.40;;;2.90;;
76228;SDS011;65021;53.174;18.160;2023-07-24T01:40:07;7.00;;;2.30;;
76228;SDS011;65021;53.174;18.160;2023-07-24T01:42:34;5.00;;;2.40;;
76228;SDS011;65021;53.174;18.160;2023-07-24T01:45:02;6.60;;;2.50;;
76228;SDS011;65021;53.174;18.160;2023-07-24T01:47:30;5.60;;;2.60;;
76228;SDS011;65021;53.174;18.160;2023-07-24T01:49:56;7.00;;;2.90;;
76228;SDS011;65021;53.174;18.160;2023-07-24T01:52:23;5.60;;;2.40;;
76228;SDS011;65021;53.174;18.160;2023-07-24T01:54:49;5.00;;;2.40;;
76228;SDS011;65021;53.174;18.160;2023-07-24T01:57:16;5.70;;;2.60;;
76228;SDS011;65021;53.174;18.160;2023-07-24T01:59:42;4.70;;;2.10;;
76228;SDS011;65021;53.174;18.160;2023-07-24T02:02:11;5.40;;;2.50;;
76228;SDS011;65021;53.174;18.160;2023-07-24T02:04:37;5.60;;;2.50;;
76228;SDS011;65021;53.174;18.160;2023-07-24T02:07:04;6.00;;;2.60;;
76228;SDS011;65021;53.174;18.160;2023-07-24T02:09:30;6.20;;;2.70;;
76228;SDS011;65021;53.174;18.160;2023-07-24T02:11:57;5.80;;;2.50;;
76228;SDS011;65021;53.174;18.160;2023-07-24T02:14:24;4.80;;;2.20;;
76228;SDS011;65021;53.174;18.160;2023-07-24T02:16:50;5.60;;;2.70;;
76228;SDS011;65021;53.174;18.160;2023-07-24T02:19:17;6.30;;;2.50;;
76228;SDS011;65021;53.174;18.160;2023-07-24T02:21:43;5.90;;;2.40;;
76228;SDS011;65021;53.174;18.160;2023-07-24T02:24:10;6.20;;;2.90;;
76228;SDS011;65021;53.174;18.160;2023-07-24T02:26:36;6.30;;;2.90;;
76228;SDS011;65021;53.174;18.160;2023-07-24T02:29:03;7.50;;;3.40;;
76228;SDS011;65021;53.174;18.160;2023-07-24T02:31:29;6.50;;;2.70;;
76228;SDS011;65021;53.174;18.160;2023-07-24T02:33:56;5.70;;;2.50;;
76228;SDS011;65021;53.174;18.160;2023-07-24T02:36:23;5.60;;;2.50;;
76228;SDS011;65021;53.174;18.160;2023-07-24T02:38:49;7.90;;;2.50;;
76228;SDS011;65021;53.174;18.160;2023-07-24T02:41:16;4.50;;;2.10;;
76228;SDS011;65021;53.174;18.160;2023-07-24T02:43:42;6.40;;;3.40;;
76228;SDS011;65021;53.174;18.160;2023-07-24T02:46:09;6.10;;;2.80;;
76228;SDS011;65021;53.174;18.160;2023-07-24T02:48:35;6.50;;;2.80;;
76228;SDS011;65021;53.174;18.160;2023-07-24T02:51:02;5.40;;;2.30;;
76228;SDS011;65021;53.174;18.160;2023-07-24T02:53:28;7.10;;;2.60;;
76228;SDS011;65021;53.174;18.160;2023-07-24T02:55:55;5.50;;;2.50;;
76228;SDS011;65021;53.174;18.160;2023-07-24T02:58:22;5.20;;;2.50;;
76228;SDS011;65021;53.174;18.160;2023-07-24T03:00:48;6.90;;;2.80;;
76228;SDS011;65021;53.174;18.160;2023-07-24T03:03:15;8.10;;;2.60;;
76228;SDS011;65021;53.174;18.160;2023-07-24T03:05:41;7.40;;;3.00;;
76228;SDS011;65021;53.174;18.160;2023-07-24T03:08:08;6.30;;;2.70;;
76228;SDS011;65021;53.174;18.160;2023-07-24T03:10:34;6.80;;;2.70;;
76228;SDS011;65021;53.174;18.160;2023-07-24T03:13:01;5.40;;;2.10;;
76228;SDS011;65021;53.174;18.160;2023-07-24T03:15:28;6.10;;;2.60;;
76228;SDS011;65021;53.174;18.160;2023-07-24T03:17:55;6.20;;;2.80;;
76228;SDS011;65021;53.174;18.160;2023-07-24T03:20:21;5.70;;;2.80;;
76228;SDS011;65021;53.174;18.160;2023-07-24T03:22:48;7.20;;;2.90;;
76228;SDS011;65021;53.174;18.160;2023-07-24T03:25:14;6.60;;;2.50;;
76228;SDS011;65021;53.174;18.160;2023-07-24T03:27:41;6.20;;;2.70;;
76228;SDS011;65021;53.174;18.160;2023-07-24T03:30:08;5.60;;;2.50;;
76228;SDS011;65021;53.174;18.160;2023-07-24T03:32:35;7.00;;;2.70;;
76228;SDS011;65021;53.174;18.160;2023-07-24T03:35:04;7.10;;;2.80;;
76228;SDS011;65021;53.174;18.160;2023-07-24T03:37:31;5.40;;;2.80;;
76228;SDS011;65021;53.174;18.160;2023-07-24T03:40:00;6.90;;;2.70;;
76228;SDS011;65021;53.174;18.160;2023-07-24T03:42:27;6.00;;;2.40;;
76228;SDS011;65021;53.174;18.160;2023-07-24T03:44:56;6.50;;;3.00;;
76228;SDS011;65021;53.174;18.160;2023-07-24T03:47:23;5.50;;;2.90;;
76228;SDS011;65021;53.174;18.160;2023-07-24T03:49:50;6.30;;;2.60;;
76228;SDS011;65021;53.174;18.160;2023-07-24T03:52:17;5.90;;;2.90;;
76228;SDS011;65021;53.174;18.160;2023-07-24T03:54:44;7.30;;;3.00;;
76228;SDS011;65021;53.174;18.160;2023-07-24T03:57:10;7.20;;;3.00;;
76228;SDS011;65021;53.174;18.160;2023-07-24T03:59:37;7.10;;;2.70;;
76228;SDS011;65021;53.174;18.160;2023-07-24T04:02:04;6.10;;;2.70;;
76228;SDS011;65021;53.174;18.160;2023-07-24T04:04:31;20.00;;;3.00;;
76228;SDS011;65021;53.174;18.160;2023-07-24T04:06:58;7.80;;;2.70;;
76228;SDS011;65021;53.174;18.160;2023-07-24T04:09:24;9.60;;;2.50;;
76228;SDS011;65021;53.174;18.160;2023-07-24T04:11:51;5.90;;;3.00;;
76228;SDS011;65021;53.174;18.160;2023-07-24T04:14:17;5.50;;;3.10;;
76228;SDS011;65021;53.174;18.160;2023-07-24T04:16:44;7.10;;;2.80;;
76228;SDS011;65021;53.174;18.160;2023-07-24T04:19:11;10.70;;;3.10;;
76228;SDS011;65021;53.174;18.160;2023-07-24T04:21:37;7.60;;;2.80;;
76228;SDS011;65021;53.174;18.160;2023-07-24T04:24:04;11.40;;;3.30;;
76228;SDS011;65021;53.174;18.160;2023-07-24T04:26:31;5.70;;;2.70;;
76228;SDS011;65021;53.174;18.160;2023-07-24T04:28:57;6.30;;;2.50;;
76228;SDS011;65021;53.174;18.160;2023-07-24T04:31:24;8.50;;;2.90;;
76228;SDS011;65021;53.174;18.160;2023-07-24T04:33:50;6.50;;;2.90;;
76228;SDS011;65021;53.174;18.160;2023-07-24T04:36:17;5.70;;;2.60;;
76228;SDS011;65021;53.174;18.160;2023-07-24T04:38:43;6.00;;;2.80;;
76228;SDS011;65021;53.174;18.160;2023-07-24T04:43:39;6.30;;;2.50;;
76228;SDS011;65021;53.174;18.160;2023-07-24T04:46:05;6.30;;;2.50;;
76228;SDS011;65021;53.174;18.160;2023-07-24T04:48:32;7.40;;;2.30;;
76228;SDS011;65021;53.174;18.160;2023-07-24T04:50:59;10.50;;;2.70;;
76228;SDS011;65021;53.174;18.160;2023-07-24T04:53:25;8.10;;;3.10;;
76228;SDS011;65021;53.174;18.160;2023-07-24T04:55:52;6.50;;;3.10;;
76228;SDS011;65021;53.174;18.160;2023-07-24T04:58:18;7.10;;;2.80;;
76228;SDS011;65021;53.174;18.160;2023-07-24T05:00:45;5.50;;;2.80;;
76228;SDS011;65021;53.174;18.160;2023-07-24T05:03:11;6.80;;;2.70;;
76228;SDS011;65021;53.174;18.160;2023-07-24T05:05:38;5.00;;;2.40;;
76228;SDS011;65021;53.174;18.160;2023-07-24T05:08:05;8.60;;;3.70;;
76228;SDS011;65021;53.174;18.160;2023-07-24T05:13:01;6.00;;;2.60;;
76228;SDS011;65021;53.174;18.160;2023-07-24T05:15:27;7.50;;;2.70;;
76228;SDS011;65021;53.174;18.160;2023-07-24T05:17:54;7.70;;;3.00;;
76228;SDS011;65021;53.174;18.160;2023-07-24T05:20:21;5.80;;;2.70;;
76228;SDS011;65021;53.174;18.160;2023-07-24T05:22:47;7.30;;;3.50;;
76228;SDS011;65021;53.174;18.160;2023-07-24T05:25:14;7.40;;;3.00;;
76228;SDS011;65021;53.174;18.160;2023-07-24T05:27:40;7.30;;;2.60;;
76228;SDS011;65021;53.174;18.160;2023-07-24T05:30:07;6.70;;;2.60;;
76228;SDS011;65021;53.174;18.160;2023-07-24T05:32:34;5.40;;;2.70;;
76228;SDS011;65021;53.174;18.160;2023-07-24T05:35:00;9.30;;;2.80;;
76228;SDS011;65021;53.174;18.160;2023-07-24T05:37:27;8.10;;;2.50;;
76228;SDS011;65021;53.174;18.160;2023-07-24T05:39:53;5.80;;;2.40;;
76228;SDS011;65021;53.174;18.160;2023-07-24T05:42:20;6.30;;;2.50;;
76228;SDS011;65021;53.174;18.160;2023-07-24T05:44:46;5.40;;;2.30;;
76228;SDS011;65021;53.174;18.160;2023-07-24T05:47:13;5.00;;;2.50;;
76228;SDS011;65021;53.174;18.160;2023-07-24T05:49:39;7.00;;;2.90;;
76228;SDS011;65021;53.174;18.160;2023-07-24T05:52:06;7.00;;;2.30;;
76228;SDS011;65021;53.174;18.160;2023-07-24T05:54:33;7.50;;;2.70;;
76228;SDS011;65021;53.174;18.160;2023-07-24T05:56:59;6.00;;;2.50;;
76228;SDS011;65021;53.174;18.160;2023-07-24T05:59:26;6.10;;;2.20;;
76228;SDS011;65021;53.174;18.160;2023-07-24T06:01:53;6.70;;;2.20;;
76228;SDS011;65021;53.174;18.160;2023-07-24T06:04:19;5.20;;;2.00;;
76228;SDS011;65021;53.174;18.160;2023-07-24T06:06:46;5.20;;;2.10;;
76228;SDS011;65021;53.174;18.160;2023-07-24T06:09:12;7.20;;;2.40;;
76228;SDS011;65021;53.174;18.160;2023-07-24T06:11:39;5.70;;;2.10;;
76228;SDS011;65021;53.174;18.160;2023-07-24T06:14:05;4.60;;;2.20;;
76228;SDS011;65021;53.174;18.160;2023-07-24T06:16:32;6.90;;;2.40;;
76228;SDS011;65021;53.174;18.160;2023-07-24T06:18:58;6.40;;;2.20;;
76228;SDS011;65021;53.174;18.160;2023-07-24T06:21:25;7.40;;;2.50;;
76228;SDS011;65021;53.174;18.160;2023-07-24T06:23:51;5.80;;;2.70;;
76228;SDS011;65021;53.174;18.160;2023-07-24T06:26:18;7.60;;;2.40;;
76228;SDS011;65021;53.174;18.160;2023-07-24T06:28:44;6.20;;;2.20;;
76228;SDS011;65021;53.174;18.160;2023-07-24T06:31:11;5.30;;;2.50;;
76228;SDS011;65021;53.174;18.160;2023-07-24T06:33:38;7.30;;;2.40;;
76228;SDS011;65021;53.174;18.160;2023-07-24T06:36:08;6.90;;;2.70;;
76228;SDS011;65021;53.174;18.160;2023-07-24T06:38:35;4.60;;;2.20;;
76228;SDS011;65021;53.174;18.160;2023-07-24T06:41:02;5.60;;;1.90;;
76228;SDS011;65021;53.174;18.160;2023-07-24T06:43:29;8.80;;;2.70;;
76228;SDS011;65021;53.174;18.160;2023-07-24T06:45:55;5.50;;;2.50;;
76228;SDS011;65021;53.174;18.160;2023-07-24T06:48:22;5.80;;;2.60;;
76228;SDS011;65021;53.174;18.160;2023-07-24T06:50:48;6.00;;;2.60;;
76228;SDS011;65021;53.174;18.160;2023-07-24T06:53:15;4.70;;;2.20;;
76228;SDS011;65021;53.174;18.160;2023-07-24T06:55:42;4.90;;;2.40;;
76228;SDS011;65021;53.174;18.160;2023-07-24T06:58:08;4.70;;;2.40;;
76228;SDS011;65021;53.174;18.160;2023-07-24T07:00:35;5.70;;;2.40;;
76228;SDS011;65021;53.174;18.160;2023-07-24T07:03:01;4.50;;;2.10;;
76228;SDS011;65021;53.174;18.160;2023-07-24T07:05:28;5.00;;;2.20;;
76228;SDS011;65021;53.174;18.160;2023-07-24T07:07:55;6.20;;;2.00;;
76228;SDS011;65021;53.174;18.160;2023-07-24T07:10:21;5.80;;;2.90;;
76228;SDS011;65021;53.174;18.160;2023-07-24T07:12:48;5.10;;;2.40;;
76228;SDS011;65021;53.174;18.160;2023-07-24T07:15:14;4.80;;;2.60;;
76228;SDS011;65021;53.174;18.160;2023-07-24T07:17:41;5.50;;;2.10;;
76228;SDS011;65021;53.174;18.160;2023-07-24T07:20:08;4.90;;;2.10;;
76228;SDS011;65021;53.174;18.160;2023-07-24T07:22:35;5.20;;;2.40;;
76228;SDS011;65021;53.174;18.160;2023-07-24T07:25:02;6.00;;;2.70;;
76228;SDS011;65021;53.174;18.160;2023-07-24T07:27:28;4.00;;;2.20;;
76228;SDS011;65021;53.174;18.160;2023-07-24T07:29:55;5.50;;;2.40;;
76228;SDS011;65021;53.174;18.160;2023-07-24T07:32:21;6.60;;;2.50;;
76228;SDS011;65021;53.174;18.160;2023-07-24T07:34:48;6.20;;;2.70;;
76228;SDS011;65021;53.174;18.160;2023-07-24T07:37:14;6.80;;;2.20;;
76228;SDS011;65021;53.174;18.160;2023-07-24T07:39:41;5.60;;;2.70;;
76228;SDS011;65021;53.174;18.160;2023-07-24T07:42:07;5.80;;;2.50;;
76228;SDS011;65021;53.174;18.160;2023-07-24T07:44:34;4.00;;;2.00;;
76228;SDS011;65021;53.174;18.160;2023-07-24T07:47:00;4.70;;;2.00;;
76228;SDS011;65021;53.174;18.160;2023-07-24T07:49:27;5.60;;;2.20;;
76228;SDS011;65021;53.174;18.160;2023-07-24T07:51:53;5.50;;;2.70;;
76228;SDS011;65021;53.174;18.160;2023-07-24T07:54:20;6.40;;;2.70;;
76228;SDS011;65021;53.174;18.160;2023-07-24T07:56:47;5.00;;;2.20;;
76228;SDS011;65021;53.174;18.160;2023-07-24T07:59:13;4.80;;;2.10;;
76228;SDS011;65021;53.174;18.160;2023-07-24T08:01:40;6.10;;;2.40;;
76228;SDS011;65021;53.174;18.160;2023-07-24T08:04:08;5.80;;;2.60;;
76228;SDS011;65021;53.174;18.160;2023-07-24T08:06:34;5.60;;;2.50;;
76228;SDS011;65021;53.174;18.160;2023-07-24T08:09:01;6.20;;;2.60;;
76228;SDS011;65021;53.174;18.160;2023-07-24T08:11:27;5.50;;;2.10;;
76228;SDS011;65021;53.174;18.160;2023-07-24T08:13:54;4.90;;;1.90;;
76228;SDS011;65021;53.174;18.160;2023-07-24T08:16:20;5.60;;;2.70;;
76228;SDS011;65021;53.174;18.160;2023-07-24T08:18:47;5.60;;;2.60;;
76228;SDS011;65021;53.174;18.160;2023-07-24T08:21:15;7.30;;;2.60;;
76228;SDS011;65021;53.174;18.160;2023-07-24T08:23:42;5.20;;;2.40;;
76228;SDS011;65021;53.174;18.160;2023-07-24T08:26:09;6.30;;;2.50;;
76228;SDS011;65021;53.174;18.160;2023-07-24T08:28:36;4.80;;;2.40;;
76228;SDS011;65021;53.174;18.160;2023-07-24T08:31:03;4.80;;;2.40;;
76228;SDS011;65021;53.174;18.160;2023-07-24T08:33:30;7.10;;;3.00;;
76228;SDS011;65021;53.174;18.160;2023-07-24T08:35:58;6.40;;;2.20;;
76228;SDS011;65021;53.174;18.160;2023-07-24T08:38:40;6.30;;;2.10;;
76228;SDS011;65021;53.174;18.160;2023-07-24T08:41:09;4.60;;;2.30;;
76228;SDS011;65021;53.174;18.160;2023-07-24T08:43:39;5.80;;;2.30;;
76228;SDS011;65021;53.174;18.160;2023-07-24T08:46:12;6.50;;;2.50;;
76228;SDS011;65021;53.174;18.160;2023-07-24T08:48:39;4.50;;;2.40;;
76228;SDS011;65021;53.174;18.160;2023-07-24T08:51:14;3.90;;;2.10;;
76228;SDS011;65021;53.174;18.160;2023-07-24T08:53:42;3.50;;;1.80;;
76228;SDS011;65021;53.174;18.160;2023-07-24T08:56:10;3.90;;;1.50;;
76228;SDS011;65021;53.174;18.160;2023-07-24T08:58:41;3.60;;;1.70;;
76228;SDS011;65021;53.174;18.160;2023-07-24T09:01:08;4.80;;;1.90;;
76228;SDS011;65021;53.174;18.160;2023-07-24T09:03:35;4.40;;;1.90;;
76228;SDS011;65021;53.174;18.160;2023-07-24T09:06:02;4.10;;;2.10;;
76228;SDS011;65021;53.174;18.160;2023-07-24T09:08:31;5.10;;;1.90;;
76228;SDS011;65021;53.174;18.160;2023-07-24T09:11:00;6.10;;;2.10;;
76228;SDS011;65021;53.174;18.160;2023-07-24T09:13:27;4.90;;;1.80;;
76228;SDS011;65021;53.174;18.160;2023-07-24T09:15:55;4.10;;;1.60;;
76228;SDS011;65021;53.174;18.160;2023-07-24T09:18:22;6.60;;;2.30;;
76228;SDS011;65021;53.174;18.160;2023-07-24T09:20:49;4.20;;;1.80;;
76228;SDS011;65021;53.174;18.160;2023-07-24T09:23:16;8.50;;;2.60;;
76228;SDS011;65021;53.174;18.160;2023-07-24T09:25:53;6.40;;;1.90;;
76228;SDS011;65021;53.174;18.160;2023-07-24T09:28:19;6.30;;;2.10;;
76228;SDS011;65021;53.174;18.160;2023-07-24T09:30:54;4.90;;;2.00;;
76228;SDS011;65021;53.174;18.160;2023-07-24T09:33:23;3.90;;;1.90;;
76228;SDS011;65021;53.174;18.160;2023-07-24T09:36:00;7.30;;;2.20;;
76228;SDS011;65021;53.174;18.160;2023-07-24T09:38:27;4.90;;;1.90;;
76228;SDS011;65021;53.174;18.160;2023-07-24T09:40:53;5.00;;;1.90;;
76228;SDS011;65021;53.174;18.160;2023-07-24T09:43:25;3.30;;;1.50;;
76228;SDS011;65021;53.174;18.160;2023-07-24T09:45:53;3.40;;;1.50;;
76228;SDS011;65021;53.174;18.160;2023-07-24T09:48:21;3.70;;;1.60;;
76228;SDS011;65021;53.174;18.160;2023-07-24T09:50:53;4.80;;;1.50;;
76228;SDS011;65021;53.174;18.160;2023-07-24T09:56:10;4.00;;;1.80;;
76228;SDS011;65021;53.174;18.160;2023-07-24T09:58:38;3.60;;;1.80;;
76228;SDS011;65021;53.174;18.160;2023-07-24T10:01:07;3.20;;;1.40;;
76228;SDS011;65021;53.174;18.160;2023-07-24T10:03:40;7.70;;;2.20;;
76228;SDS011;65021;53.174;18.160;2023-07-24T10:06:10;4.30;;;1.60;;
76228;SDS011;65021;53.174;18.160;2023-07-24T10:08:40;3.00;;;1.50;;
76228;SDS011;65021;53.174;18.160;2023-07-24T10:11:13;4.10;;;1.40;;
76228;SDS011;65021;53.174;18.160;2023-07-24T10:13:41;4.10;;;1.50;;
76228;SDS011;65021;53.174;18.160;2023-07-24T10:16:08;5.70;;;1.80;;
76228;SDS011;65021;53.174;18.160;2023-07-24T10:18:41;4.60;;;1.70;;
76228;SDS011;65021;53.174;18.160;2023-07-24T10:21:12;4.40;;;2.00;;
76228;SDS011;65021;53.174;18.160;2023-07-24T10:23:43;3.90;;;1.90;;
76228;SDS011;65021;53.174;18.160;2023-07-24T10:26:13;3.50;;;1.80;;
76228;SDS011;65021;53.174;18.160;2023-07-24T10:28:46;5.30;;;1.80;;
76228;SDS011;65021;53.174;18.160;2023-07-24T10:33:49;3.70;;;1.90;;
76228;SDS011;65021;53.174;18.160;2023-07-24T10:36:21;5.00;;;1.90;;
76228;SDS011;65021;53.174;18.160;2023-07-24T10:38:53;3.70;;;1.70;;
76228;SDS011;65021;53.174;18.160;2023-07-24T10:41:21;5.40;;;1.70;;
76228;SDS011;65021;53.174;18.160;2023-07-24T10:43:52;3.50;;;1.50;;
76228;SDS011;65021;53.174;18.160;2023-07-24T10:46:34;3.40;;;1.60;;
76228;SDS011;65021;53.174;18.160;2023-07-24T10:49:03;6.30;;;1.80;;
76228;SDS011;65021;53.174;18.160;2023-07-24T10:51:30;4.60;;;2.10;;
76228;SDS011;65021;53.174;18.160;2023-07-24T10:54:01;4.00;;;1.90;;
76228;SDS011;65021;53.174;18.160;2023-07-24T10:56:28;4.90;;;1.80;;
76228;SDS011;65021;53.174;18.160;2023-07-24T10:58:55;4.40;;;1.80;;
76228;SDS011;65021;53.174;18.160;2023-07-24T11:01:22;3.90;;;1.80;;
76228;SDS011;65021;53.174;18.160;2023-07-24T11:03:49;3.60;;;1.90;;
76228;SDS011;65021;53.174;18.160;2023-07-24T11:06:17;4.00;;;1.90;;
76228;SDS011;65021;53.174;18.160;2023-07-24T11:08:54;4.10;;;1.40;;
76228;SDS011;65021;53.174;18.160;2023-07-24T11:11:29;5.10;;;2.00;;
76228;SDS011;65021;53.174;18.160;2023-07-24T11:14:00;4.20;;;1.60;;
76228;SDS011;65021;53.174;18.160;2023-07-24T11:16:28;4.70;;;1.60;;
76228;SDS011;65021;53.174;18.160;2023-07-24T11:18:57;4.80;;;1.70;;
76228;SDS011;65021;53.174;18.160;2023-07-24T11:21:23;4.50;;;1.80;;
76228;SDS011;65021;53.174;18.160;2023-07-24T11:23:52;4.30;;;1.90;;
76228;SDS011;65021;53.174;18.160;2023-07-24T11:26:20;5.90;;;1.80;;
76228;SDS011;65021;53.174;18.160;2023-07-24T11:31:16;4.20;;;1.80;;
76228;SDS011;65021;53.174;18.160;2023-07-24T11:33:46;4.00;;;2.00;;
76228;SDS011;65021;53.174;18.160;2023-07-24T11:36:16;4.30;;;2.00;;
76228;SDS011;65021;53.174;18.160;2023-07-24T11:38:46;3.30;;;1.50;;
76228;SDS011;65021;53.174;18.160;2023-07-24T11:41:15;3.90;;;1.50;;
76228;SDS011;65021;53.174;18.160;2023-07-24T11:46:23;4.30;;;1.70;;
76228;SDS011;65021;53.174;18.160;2023-07-24T11:48:50;3.80;;;1.80;;
76228;SDS011;65021;53.174;18.160;2023-07-24T11:51:19;4.80;;;1.80;;
76228;SDS011;65021;53.174;18.160;2023-07-24T11:53:46;4.30;;;1.70;;
76228;SDS011;65021;53.174;18.160;2023-07-24T11:56:14;3.30;;;1.40;;
76228;SDS011;65021;53.174;18.160;2023-07-24T11:58:42;3.30;;;1.50;;
76228;SDS011;65021;53.174;18.160;2023-07-24T12:01:08;3.10;;;1.50;;
76228;SDS011;65021;53.174;18.160;2023-07-24T12:03:35;3.30;;;1.70;;
76228;SDS011;65021;53.174;18.160;2023-07-24T12:06:02;4.10;;;1.60;;
76228;SDS011;65021;53.174;18.160;2023-07-24T12:08:32;4.30;;;1.60;;
76228;SDS011;65021;53.174;18.160;2023-07-24T12:11:00;3.60;;;1.40;;
76228;SDS011;65021;53.174;18.160;2023-07-24T12:13:27;4.80;;;1.70;;
76228;SDS011;65021;53.174;18.160;2023-07-24T12:15:54;4.40;;;1.70;;
76228;SDS011;65021;53.174;18.160;2023-07-24T12:18:21;4.20;;;1.50;;
76228;SDS011;65021;53.174;18.160;2023-07-24T12:20:47;3.30;;;1.60;;
76228;SDS011;65021;53.174;18.160;2023-07-24T12:23:14;3.30;;;1.40;;
76228;SDS011;65021;53.174;18.160;2023-07-24T12:25:40;3.40;;;1.60;;
76228;SDS011;65021;53.174;18.160;2023-07-24T12:28:07;4.20;;;1.50;;
76228;SDS011;65021;53.174;18.160;2023-07-24T12:30:33;4.80;;;1.50;;
76228;SDS011;65021;53.174;18.160;2023-07-24T12:33:00;5.10;;;1.30;;
76228;SDS011;65021;53.174;18.160;2023-07-24T12:35:26;3.00;;;1.50;;
76228;SDS011;65021;53.174;18.160;2023-07-24T12:37:53;3.20;;;1.50;;
76228;SDS011;65021;53.174;18.160;2023-07-24T12:40:20;3.30;;;1.30;;
76228;SDS011;65021;53.174;18.160;2023-07-24T12:42:46;3.80;;;1.70;;
76228;SDS011;65021;53.174;18.160;2023-07-24T12:45:13;4.80;;;1.70;;
76228;SDS011;65021;53.174;18.160;2023-07-24T12:47:40;4.00;;;1.60;;
76228;SDS011;65021;53.174;18.160;2023-07-24T12:50:06;4.60;;;1.60;;
76228;SDS011;65021;53.174;18.160;2023-07-24T12:52:33;4.80;;;1.60;;
76228;SDS011;65021;53.174;18.160;2023-07-24T12:55:00;5.60;;;1.60;;
76228;SDS011;65021;53.174;18.160;2023-07-24T12:57:26;4.50;;;1.40;;
76228;SDS011;65021;53.174;18.160;2023-07-24T12:59:53;3.40;;;1.40;;
76228;SDS011;65021;53.174;18.160;2023-07-24T13:02:20;3.70;;;1.60;;
76228;SDS011;65021;53.174;18.160;2023-07-24T13:04:46;3.90;;;1.50;;
76228;SDS011;65021;53.174;18.160;2023-07-24T13:07:13;4.70;;;1.70;;
76228;SDS011;65021;53.174;18.160;2023-07-24T13:09:39;3.00;;;1.40;;
76228;SDS011;65021;53.174;18.160;2023-07-24T13:12:06;4.60;;;1.60;;
76228;SDS011;65021;53.174;18.160;2023-07-24T13:14:33;3.20;;;1.50;;
76228;SDS011;65021;53.174;18.160;2023-07-24T13:17:00;3.70;;;1.40;;
76228;SDS011;65021;53.174;18.160;2023-07-24T13:19:26;3.70;;;1.70;;
76228;SDS011;65021;53.174;18.160;2023-07-24T13:21:53;4.00;;;1.60;;
76228;SDS011;65021;53.174;18.160;2023-07-24T13:24:19;4.20;;;1.60;;
76228;SDS011;65021;53.174;18.160;2023-07-24T13:26:46;4.00;;;1.60;;
76228;SDS011;65021;53.174;18.160;2023-07-24T13:29:12;4.40;;;1.60;;
76228;SDS011;65021;53.174;18.160;2023-07-24T13:31:39;4.50;;;1.50;;
76228;SDS011;65021;53.174;18.160;2023-07-24T13:34:07;3.50;;;1.70;;
76228;SDS011;65021;53.174;18.160;2023-07-24T13:36:36;4.20;;;1.70;;
76228;SDS011;65021;53.174;18.160;2023-07-24T13:39:10;4.20;;;1.50;;
76228;SDS011;65021;53.174;18.160;2023-07-24T13:41:39;3.30;;;1.60;;
76228;SDS011;65021;53.174;18.160;2023-07-24T13:44:05;3.40;;;1.60;;
76228;SDS011;65021;53.174;18.160;2023-07-24T13:46:32;4.10;;;1.70;;
76228;SDS011;65021;53.174;18.160;2023-07-24T13:48:59;3.40;;;1.60;;
76228;SDS011;65021;53.174;18.160;2023-07-24T13:51:25;4.30;;;1.70;;
76228;SDS011;65021;53.174;18.160;2023-07-24T13:53:52;3.20;;;1.70;;
76228;SDS011;65021;53.174;18.160;2023-07-24T13:56:20;4.50;;;1.80;;
76228;SDS011;65021;53.174;18.160;2023-07-24T13:58:50;3.90;;;1.60;;
76228;SDS011;65021;53.174;18.160;2023-07-24T14:01:17;4.90;;;2.00;;
76228;SDS011;65021;53.174;18.160;2023-07-24T14:03:43;4.50;;;1.70;;
76228;SDS011;65021;53.174;18.160;2023-07-24T14:06:10;4.10;;;2.00;;
76228;SDS011;65021;53.174;18.160;2023-07-24T14:08:36;3.80;;;2.00;;
76228;SDS011;65021;53.174;18.160;2023-07-24T14:11:03;6.90;;;1.70;;
76228;SDS011;65021;53.174;18.160;2023-07-24T14:13:30;3.70;;;1.80;;
76228;SDS011;65021;53.174;18.160;2023-07-24T14:15:56;3.90;;;1.70;;
76228;SDS011;65021;53.174;18.160;2023-07-24T14:18:23;5.50;;;2.50;;
76228;SDS011;65021;53.174;18.160;2023-07-24T14:20:50;4.40;;;1.90;;
76228;SDS011;65021;53.174;18.160;2023-07-24T14:23:18;5.80;;;2.00;;
76228;SDS011;65021;53.174;18.160;2023-07-24T14:25:45;4.50;;;1.80;;
76228;SDS011;65021;53.174;18.160;2023-07-24T14:28:11;5.00;;;2.00;;
76228;SDS011;65021;53.174;18.160;2023-07-24T14:30:38;6.00;;;2.00;;
76228;SDS011;65021;53.174;18.160;2023-07-24T14:33:04;4.60;;;2.20;;
76228;SDS011;65021;53.174;18.160;2023-07-24T14:35:31;4.80;;;2.20;;
76228;SDS011;65021;53.174;18.160;2023-07-24T14:37:57;4.90;;;2.10;;
76228;SDS011;65021;53.174;18.160;2023-07-24T14:40:24;4.30;;;2.20;;
76228;SDS011;65021;53.174;18.160;2023-07-24T14:42:50;4.00;;;2.10;;
76228;SDS011;65021;53.174;18.160;2023-07-24T14:45:17;5.70;;;2.50;;
76228;SDS011;65021;53.174;18.160;2023-07-24T14:47:43;4.20;;;2.00;;
76228;SDS011;65021;53.174;18.160;2023-07-24T14:50:10;4.90;;;2.20;;
76228;SDS011;65021;53.174;18.160;2023-07-24T14:52:36;5.00;;;2.40;;
76228;SDS011;65021;53.174;18.160;2023-07-24T14:55:04;6.00;;;2.60;;